Terminal Aerodrome Forecast
Issued by NWS

Home | Current Version | Previous Version | Text Only | Print | Product List | Glossary On
Versions: 1 2 3 4 5 6 7 8 9 10 11 12 13 14 15 16 17 18 19 20
000
FTUS46 KMFR 181720
TAFRBG
TAF
KRBG 181720Z 1818/1918 00000KT 4SM BR SCT005 OVC090
     FM181900 VRB03KT P6SM OVC080
     FM182100 18008KT P6SM OVC060
     FM190200 18011KT P6SM RA OVC040
     FM190900 VRB03KT P6SM -RA OVC030
     FM191200 VRB03KT P6SM -SHRA OVC020=

USA.gov is the U.S. government's official web portal to all federal, state and local government web resources and services.